sensor_id;sensor_type;location;lat;lon;timestamp;temperature;humidity
20977;DHT22;10647;51.016;3.720;2023-04-15T00:02:16;13.60;97.00
20977;DHT22;10647;51.016;3.720;2023-04-15T00:04:46;13.60;97.40
20977;DHT22;10647;51.016;3.720;2023-04-15T00:07:14;13.60;97.40
20977;DHT22;10647;51.016;3.720;2023-04-15T00:09:41;13.60;97.70
20977;DHT22;10647;51.016;3.720;2023-04-15T00:12:11;13.60;98.10
20977;DHT22;10647;51.016;3.720;2023-04-15T00:14:41;13.50;98.50
20977;DHT22;10647;51.016;3.720;2023-04-15T00:17:08;13.50;99.10
20977;DHT22;10647;51.016;3.720;2023-04-15T00:19:36;13.40;99.60
20977;DHT22;10647;51.016;3.720;2023-04-15T00:22:04;13.40;99.90
20977;DHT22;10647;51.016;3.720;2023-04-15T00:24:32;13.30;99.90
20977;DHT22;10647;51.016;3.720;2023-04-15T00:27:00;13.30;99.90
20977;DHT22;10647;51.016;3.720;2023-04-15T00:29:27;13.20;99.90
20977;DHT22;10647;51.016;3.720;2023-04-15T00:31:56;13.30;99.90
20977;DHT22;10647;51.016;3.720;2023-04-15T00:34:26;13.30;99.90
20977;DHT22;10647;51.016;3.720;2023-04-15T00:36:55;13.30;99.90
20977;DHT22;10647;51.016;3.720;2023-04-15T00:39:22;13.30;99.90
20977;DHT22;10647;51.016;3.720;2023-04-15T00:41:51;13.30;99.90
20977;DHT22;10647;51.016;3.720;2023-04-15T00:44:21;13.20;99.90
20977;DHT22;10647;51.016;3.720;2023-04-15T00:46:51;13.20;99.90
20977;DHT22;10647;51.016;3.720;2023-04-15T00:49:18;13.20;99.90
20977;DHT22;10647;51.016;3.720;2023-04-15T00:51:46;13.20;99.90
20977;DHT22;10647;51.016;3.720;2023-04-15T00:54:14;13.10;99.90
20977;DHT22;10647;51.016;3.720;2023-04-15T00:56:45;13.10;99.90
20977;DHT22;10647;51.016;3.720;2023-04-15T00:59:19;13.00;99.90
20977;DHT22;10647;51.016;3.720;2023-04-15T01:02:06;12.90;99.90
20977;DHT22;10647;51.016;3.720;2023-04-15T01:04:35;12.90;99.90
20977;DHT22;10647;51.016;3.720;2023-04-15T01:07:09;12.90;99.90
20977;DHT22;10647;51.016;3.720;2023-04-15T01:09:42;12.80;99.90
20977;DHT22;10647;51.016;3.720;2023-04-15T01:12:14;12.70;99.90
20977;DHT22;10647;51.016;3.720;2023-04-15T01:14:45;12.60;99.90
20977;DHT22;10647;51.016;3.720;2023-04-15T01:17:13;12.70;99.90
20977;DHT22;10647;51.016;3.720;2023-04-15T01:19:43;12.70;99.90
20977;DHT22;10647;51.016;3.720;2023-04-15T01:22:12;12.70;99.90
20977;DHT22;10647;51.016;3.720;2023-04-15T01:24:50;12.60;99.90
20977;DHT22;10647;51.016;3.720;2023-04-15T01:27:17;12.50;99.90
20977;DHT22;10647;51.016;3.720;2023-04-15T01:29:44;12.50;99.90
20977;DHT22;10647;51.016;3.720;2023-04-15T01:32:12;12.40;99.90
20977;DHT22;10647;51.016;3.720;2023-04-15T01:34:40;12.30;99.90
20977;DHT22;10647;51.016;3.720;2023-04-15T01:37:08;12.30;99.90
20977;DHT22;10647;51.016;3.720;2023-04-15T01:39:37;12.20;99.90
20977;DHT22;10647;51.016;3.720;2023-04-15T01:42:04;12.20;99.90
20977;DHT22;10647;51.016;3.720;2023-04-15T01:44:32;12.10;99.90
20977;DHT22;10647;51.016;3.720;2023-04-15T01:47:05;12.10;99.90
20977;DHT22;10647;51.016;3.720;2023-04-15T01:49:36;12.00;99.90
20977;DHT22;10647;51.016;3.720;2023-04-15T01:52:07;12.00;99.90
20977;DHT22;10647;51.016;3.720;2023-04-15T01:54:36;12.00;99.90
20977;DHT22;10647;51.016;3.720;2023-04-15T01:57:03;12.00;99.90
20977;DHT22;10647;51.016;3.720;2023-04-15T01:59:31;12.00;99.90
20977;DHT22;10647;51.016;3.720;2023-04-15T02:01:59;11.90;99.90
20977;DHT22;10647;51.016;3.720;2023-04-15T02:04:27;11.90;99.90
20977;DHT22;10647;51.016;3.720;2023-04-15T02:06:54;11.90;99.90
20977;DHT22;10647;51.016;3.720;2023-04-15T02:09:22;11.90;99.90
20977;DHT22;10647;51.016;3.720;2023-04-15T02:11:54;11.80;99.90
20977;DHT22;10647;51.016;3.720;2023-04-15T02:14:31;11.70;99.90
20977;DHT22;10647;51.016;3.720;2023-04-15T02:17:32;11.60;99.90
20977;DHT22;10647;51.016;3.720;2023-04-15T02:20:00;11.60;99.90
20977;DHT22;10647;51.016;3.720;2023-04-15T02:22:31;11.50;99.90
20977;DHT22;10647;51.016;3.720;2023-04-15T02:24:58;11.50;99.90
20977;DHT22;10647;51.016;3.720;2023-04-15T02:27:28;11.40;99.90
20977;DHT22;10647;51.016;3.720;2023-04-15T02:29:57;11.40;99.90
20977;DHT22;10647;51.016;3.720;2023-04-15T02:32:25;11.30;99.90
20977;DHT22;10647;51.016;3.720;2023-04-15T02:34:53;11.30;99.90
20977;DHT22;10647;51.016;3.720;2023-04-15T02:37:20;11.30;99.90
20977;DHT22;10647;51.016;3.720;2023-04-15T02:40:08;11.30;99.90
20977;DHT22;10647;51.016;3.720;2023-04-15T02:42:39;11.30;99.90
20977;DHT22;10647;51.016;3.720;2023-04-15T02:45:08;11.30;99.90
20977;DHT22;10647;51.016;3.720;2023-04-15T02:47:43;11.40;99.90
20977;DHT22;10647;51.016;3.720;2023-04-15T02:50:13;11.30;99.90
20977;DHT22;10647;51.016;3.720;2023-04-15T02:52:41;11.30;99.90
20977;DHT22;10647;51.016;3.720;2023-04-15T02:55:10;11.30;99.90
20977;DHT22;10647;51.016;3.720;2023-04-15T02:57:38;11.30;99.90
20977;DHT22;10647;51.016;3.720;2023-04-15T03:00:07;11.40;99.90
20977;DHT22;10647;51.016;3.720;2023-04-15T03:02:37;11.40;99.90
20977;DHT22;10647;51.016;3.720;2023-04-15T03:05:05;11.40;99.90
20977;DHT22;10647;51.016;3.720;2023-04-15T03:07:33;11.40;99.90
20977;DHT22;10647;51.016;3.720;2023-04-15T03:10:01;11.40;99.90
20977;DHT22;10647;51.016;3.720;2023-04-15T03:12:29;11.40;99.90
20977;DHT22;10647;51.016;3.720;2023-04-15T03:14:57;11.30;99.90
20977;DHT22;10647;51.016;3.720;2023-04-15T03:17:25;11.30;99.90
20977;DHT22;10647;51.016;3.720;2023-04-15T03:19:55;11.40;99.90
20977;DHT22;10647;51.016;3.720;2023-04-15T03:22:23;11.30;99.90
20977;DHT22;10647;51.016;3.720;2023-04-15T03:24:52;11.30;99.90
20977;DHT22;10647;51.016;3.720;2023-04-15T03:27:19;11.30;99.90
20977;DHT22;10647;51.016;3.720;2023-04-15T03:29:47;11.30;99.90
20977;DHT22;10647;51.016;3.720;2023-04-15T03:32:14;11.30;99.90
20977;DHT22;10647;51.016;3.720;2023-04-15T03:34:42;11.30;99.90
20977;DHT22;10647;51.016;3.720;2023-04-15T03:37:09;11.30;99.90
20977;DHT22;10647;51.016;3.720;2023-04-15T03:39:38;11.30;99.90
20977;DHT22;10647;51.016;3.720;2023-04-15T03:42:05;11.30;99.90
20977;DHT22;10647;51.016;3.720;2023-04-15T03:44:33;11.30;99.90
20977;DHT22;10647;51.016;3.720;2023-04-15T03:47:21;11.20;99.90
20977;DHT22;10647;51.016;3.720;2023-04-15T03:49:49;11.20;99.90
20977;DHT22;10647;51.016;3.720;2023-04-15T03:52:16;11.20;99.90
20977;DHT22;10647;51.016;3.720;2023-04-15T03:54:45;11.20;99.90
20977;DHT22;10647;51.016;3.720;2023-04-15T03:57:13;11.20;99.90
20977;DHT22;10647;51.016;3.720;2023-04-15T03:59:40;11.10;99.90
20977;DHT22;10647;51.016;3.720;2023-04-15T04:02:08;11.20;99.90
20977;DHT22;10647;51.016;3.720;2023-04-15T04:04:36;11.20;99.90
20977;DHT22;10647;51.016;3.720;2023-04-15T04:07:04;11.20;99.90
20977;DHT22;10647;51.016;3.720;2023-04-15T04:09:31;11.20;99.90
20977;DHT22;10647;51.016;3.720;2023-04-15T04:11:59;11.20;99.90
20977;DHT22;10647;51.016;3.720;2023-04-15T04:14:30;11.20;99.90
20977;DHT22;10647;51.016;3.720;2023-04-15T04:16:58;11.20;99.90
20977;DHT22;10647;51.016;3.720;2023-04-15T04:19:26;11.30;99.90
20977;DHT22;10647;51.016;3.720;2023-04-15T04:21:55;11.30;99.90
20977;DHT22;10647;51.016;3.720;2023-04-15T04:24:23;11.20;99.90
20977;DHT22;10647;51.016;3.720;2023-04-15T04:26:53;11.20;99.90
20977;DHT22;10647;51.016;3.720;2023-04-15T04:29:23;11.20;99.90
20977;DHT22;10647;51.016;3.720;2023-04-15T04:31:50;11.20;99.90
20977;DHT22;10647;51.016;3.720;2023-04-15T04:34:18;11.10;99.90
20977;DHT22;10647;51.016;3.720;2023-04-15T04:36:47;11.10;99.90
20977;DHT22;10647;51.016;3.720;2023-04-15T04:39:16;11.10;99.90
20977;DHT22;10647;51.016;3.720;2023-04-15T04:41:44;11.10;99.90
20977;DHT22;10647;51.016;3.720;2023-04-15T04:44:11;11.10;99.90
20977;DHT22;10647;51.016;3.720;2023-04-15T04:46:39;11.10;99.90
20977;DHT22;10647;51.016;3.720;2023-04-15T04:49:07;11.10;99.90
20977;DHT22;10647;51.016;3.720;2023-04-15T04:51:35;11.10;99.90
20977;DHT22;10647;51.016;3.720;2023-04-15T04:54:03;11.10;99.90
20977;DHT22;10647;51.016;3.720;2023-04-15T04:56:31;11.10;99.90
20977;DHT22;10647;51.016;3.720;2023-04-15T04:58:59;11.10;99.90
20977;DHT22;10647;51.016;3.720;2023-04-15T05:01:27;11.10;99.90
20977;DHT22;10647;51.016;3.720;2023-04-15T05:03:57;11.10;99.90
20977;DHT22;10647;51.016;3.720;2023-04-15T05:06:24;11.10;99.90
20977;DHT22;10647;51.016;3.720;2023-04-15T05:08:53;11.10;99.90
20977;DHT22;10647;51.016;3.720;2023-04-15T05:11:21;11.10;99.90
20977;DHT22;10647;51.016;3.720;2023-04-15T05:13:49;11.10;99.90
20977;DHT22;10647;51.016;3.720;2023-04-15T05:16:16;11.20;99.90
20977;DHT22;10647;51.016;3.720;2023-04-15T05:18:51;11.20;99.90
20977;DHT22;10647;51.016;3.720;2023-04-15T05:21:24;11.20;99.90
20977;DHT22;10647;51.016;3.720;2023-04-15T05:23:55;11.20;99.90
20977;DHT22;10647;51.016;3.720;2023-04-15T05:26:22;11.30;99.90
20977;DHT22;10647;51.016;3.720;2023-04-15T05:28:50;11.30;99.90
20977;DHT22;10647;51.016;3.720;2023-04-15T05:31:17;11.30;99.90
20977;DHT22;10647;51.016;3.720;2023-04-15T05:33:47;11.30;99.90
20977;DHT22;10647;51.016;3.720;2023-04-15T05:36:16;11.30;99.90
20977;DHT22;10647;51.016;3.720;2023-04-15T05:38:43;11.30;99.90
20977;DHT22;10647;51.016;3.720;2023-04-15T05:41:13;11.40;99.90
20977;DHT22;10647;51.016;3.720;2023-04-15T05:43:47;11.40;99.90
20977;DHT22;10647;51.016;3.720;2023-04-15T05:46:14;11.50;99.90
20977;DHT22;10647;51.016;3.720;2023-04-15T05:48:42;11.40;99.90
20977;DHT22;10647;51.016;3.720;2023-04-15T05:51:13;11.40;99.90
20977;DHT22;10647;51.016;3.720;2023-04-15T05:53:41;11.40;99.90
20977;DHT22;10647;51.016;3.720;2023-04-15T05:56:14;11.50;99.90
20977;DHT22;10647;51.016;3.720;2023-04-15T05:58:43;11.60;99.90
20977;DHT22;10647;51.016;3.720;2023-04-15T06:01:11;11.60;99.90
20977;DHT22;10647;51.016;3.720;2023-04-15T06:03:44;11.70;99.90
20977;DHT22;10647;51.016;3.720;2023-04-15T06:06:18;11.70;99.90
20977;DHT22;10647;51.016;3.720;2023-04-15T06:08:46;11.80;99.90
20977;DHT22;10647;51.016;3.720;2023-04-15T06:11:24;11.80;99.90
20977;DHT22;10647;51.016;3.720;2023-04-15T06:13:57;11.80;99.90
20977;DHT22;10647;51.016;3.720;2023-04-15T06:16:51;11.80;99.90
20977;DHT22;10647;51.016;3.720;2023-04-15T06:19:45;11.90;99.90
20977;DHT22;10647;51.016;3.720;2023-04-15T06:22:16;12.10;99.90
20977;DHT22;10647;51.016;3.720;2023-04-15T06:24:58;12.30;99.90
20977;DHT22;10647;51.016;3.720;2023-04-15T06:27:47;12.60;99.90
20977;DHT22;10647;51.016;3.720;2023-04-15T06:30:27;12.70;99.90
20977;DHT22;10647;51.016;3.720;2023-04-15T06:33:05;12.90;99.90
20977;DHT22;10647;51.016;3.720;2023-04-15T06:35:37;13.00;99.90
20977;DHT22;10647;51.016;3.720;2023-04-15T06:38:14;13.00;99.90
20977;DHT22;10647;51.016;3.720;2023-04-15T06:40:45;13.00;99.90
20977;DHT22;10647;51.016;3.720;2023-04-15T06:43:16;13.10;99.90
20977;DHT22;10647;51.016;3.720;2023-04-15T06:45:45;13.30;99.90
20977;DHT22;10647;51.016;3.720;2023-04-15T06:48:13;13.40;99.90
20977;DHT22;10647;51.016;3.720;2023-04-15T06:50:42;13.60;99.90
20977;DHT22;10647;51.016;3.720;2023-04-15T06:53:09;13.70;99.90
20977;DHT22;10647;51.016;3.720;2023-04-15T06:55:37;13.90;99.90
20977;DHT22;10647;51.016;3.720;2023-04-15T06:58:05;14.10;99.90
20977;DHT22;10647;51.016;3.720;2023-04-15T07:00:33;14.30;99.90
20977;DHT22;10647;51.016;3.720;2023-04-15T07:03:01;14.40;99.90
20977;DHT22;10647;51.016;3.720;2023-04-15T07:05:29;14.60;99.90
20977;DHT22;10647;51.016;3.720;2023-04-15T07:07:57;14.70;99.90
20977;DHT22;10647;51.016;3.720;2023-04-15T07:10:27;14.80;99.90
20977;DHT22;10647;51.016;3.720;2023-04-15T07:12:56;14.90;99.90
20977;DHT22;10647;51.016;3.720;2023-04-15T07:15:24;14.90;99.90
20977;DHT22;10647;51.016;3.720;2023-04-15T07:17:51;14.90;99.90
20977;DHT22;10647;51.016;3.720;2023-04-15T07:20:22;15.00;99.90
20977;DHT22;10647;51.016;3.720;2023-04-15T07:22:51;15.10;99.90
20977;DHT22;10647;51.016;3.720;2023-04-15T07:25:19;15.30;99.90
20977;DHT22;10647;51.016;3.720;2023-04-15T07:27:47;15.40;99.90
20977;DHT22;10647;51.016;3.720;2023-04-15T07:30:26;15.50;99.90
20977;DHT22;10647;51.016;3.720;2023-04-15T07:32:57;15.50;99.90
20977;DHT22;10647;51.016;3.720;2023-04-15T07:35:26;15.50;99.90
20977;DHT22;10647;51.016;3.720;2023-04-15T07:37:55;15.50;99.90
20977;DHT22;10647;51.016;3.720;2023-04-15T07:40:23;15.60;99.90
20977;DHT22;10647;51.016;3.720;2023-04-15T07:42:50;15.40;99.90
20977;DHT22;10647;51.016;3.720;2023-04-15T07:45:18;15.30;99.90
20977;DHT22;10647;51.016;3.720;2023-04-15T07:47:46;15.20;99.90
20977;DHT22;10647;51.016;3.720;2023-04-15T07:50:15;15.30;99.90
20977;DHT22;10647;51.016;3.720;2023-04-15T07:52:43;15.30;99.90
20977;DHT22;10647;51.016;3.720;2023-04-15T07:55:11;15.40;99.90
20977;DHT22;10647;51.016;3.720;2023-04-15T07:57:39;15.50;99.90
20977;DHT22;10647;51.016;3.720;2023-04-15T08:00:07;15.50;99.90
20977;DHT22;10647;51.016;3.720;2023-04-15T08:02:35;15.70;99.90
20977;DHT22;10647;51.016;3.720;2023-04-15T08:05:03;15.80;99.90
20977;DHT22;10647;51.016;3.720;2023-04-15T08:07:30;16.00;99.90
20977;DHT22;10647;51.016;3.720;2023-04-15T08:09:58;16.00;99.90
20977;DHT22;10647;51.016;3.720;2023-04-15T08:12:27;16.20;99.90
20977;DHT22;10647;51.016;3.720;2023-04-15T08:14:55;16.20;99.90
20977;DHT22;10647;51.016;3.720;2023-04-15T08:17:23;16.20;99.90
20977;DHT22;10647;51.016;3.720;2023-04-15T08:19:51;16.30;99.90
20977;DHT22;10647;51.016;3.720;2023-04-15T08:22:20;16.30;99.90
20977;DHT22;10647;51.016;3.720;2023-04-15T08:24:48;16.30;99.90
20977;DHT22;10647;51.016;3.720;2023-04-15T08:27:15;16.30;99.90
20977;DHT22;10647;51.016;3.720;2023-04-15T08:29:43;16.50;99.90
20977;DHT22;10647;51.016;3.720;2023-04-15T08:32:11;16.70;99.90
20977;DHT22;10647;51.016;3.720;2023-04-15T08:34:38;16.60;99.90
20977;DHT22;10647;51.016;3.720;2023-04-15T08:37:06;16.50;99.90
20977;DHT22;10647;51.016;3.720;2023-04-15T08:39:33;16.40;99.90
20977;DHT22;10647;51.016;3.720;2023-04-15T08:42:02;16.50;99.90
20977;DHT22;10647;51.016;3.720;2023-04-15T08:47:23;16.70;99.90
20977;DHT22;10647;51.016;3.720;2023-04-15T08:49:54;16.80;99.90
20977;DHT22;10647;51.016;3.720;2023-04-15T08:52:22;17.00;99.90
20977;DHT22;10647;51.016;3.720;2023-04-15T08:54:54;17.10;99.90
20977;DHT22;10647;51.016;3.720;2023-04-15T08:57:25;17.10;99.90
20977;DHT22;10647;51.016;3.720;2023-04-15T08:59:54;17.40;99.90
20977;DHT22;10647;51.016;3.720;2023-04-15T09:02:24;17.70;99.90
20977;DHT22;10647;51.016;3.720;2023-04-15T09:04:51;18.00;99.90
20977;DHT22;10647;51.016;3.720;2023-04-15T09:07:19;18.40;99.90
20977;DHT22;10647;51.016;3.720;2023-04-15T09:09:48;18.70;99.90
20977;DHT22;10647;51.016;3.720;2023-04-15T09:12:15;19.00;99.90
20977;DHT22;10647;51.016;3.720;2023-04-15T09:14:45;19.30;99.90
20977;DHT22;10647;51.016;3.720;2023-04-15T09:17:17;19.40;99.90
20977;DHT22;10647;51.016;3.720;2023-04-15T09:19:44;19.40;99.90
20977;DHT22;10647;51.016;3.720;2023-04-15T09:22:12;19.60;99.90
20977;DHT22;10647;51.016;3.720;2023-04-15T09:24:40;19.60;99.90
20977;DHT22;10647;51.016;3.720;2023-04-15T09:27:09;19.80;99.90
20977;DHT22;10647;51.016;3.720;2023-04-15T09:29:37;19.80;99.90
20977;DHT22;10647;51.016;3.720;2023-04-15T09:32:12;19.60;99.90
20977;DHT22;10647;51.016;3.720;2023-04-15T09:34:40;19.60;99.90
20977;DHT22;10647;51.016;3.720;2023-04-15T09:37:07;19.80;99.90
20977;DHT22;10647;51.016;3.720;2023-04-15T09:39:51;19.80;99.90
20977;DHT22;10647;51.016;3.720;2023-04-15T09:42:19;19.90;99.90
20977;DHT22;10647;51.016;3.720;2023-04-15T09:44:49;19.80;99.90
20977;DHT22;10647;51.016;3.720;2023-04-15T09:47:28;19.80;99.90
20977;DHT22;10647;51.016;3.720;2023-04-15T09:49:58;20.00;99.90
20977;DHT22;10647;51.016;3.720;2023-04-15T09:52:26;20.10;99.90
20977;DHT22;10647;51.016;3.720;2023-04-15T09:54:56;20.00;99.90
20977;DHT22;10647;51.016;3.720;2023-04-15T09:57:24;20.00;99.90
20977;DHT22;10647;51.016;3.720;2023-04-15T09:59:52;20.00;99.90
20977;DHT22;10647;51.016;3.720;2023-04-15T10:02:19;19.70;99.90
20977;DHT22;10647;51.016;3.720;2023-04-15T10:04:48;19.60;99.90
20977;DHT22;10647;51.016;3.720;2023-04-15T10:07:16;19.50;99.90
20977;DHT22;10647;51.016;3.720;2023-04-15T10:09:47;19.30;99.90
20977;DHT22;10647;51.016;3.720;2023-04-15T10:12:18;19.20;99.90
20977;DHT22;10647;51.016;3.720;2023-04-15T10:14:56;19.10;99.90
20977;DHT22;10647;51.016;3.720;2023-04-15T10:17:43;19.10;99.90
20977;DHT22;10647;51.016;3.720;2023-04-15T10:20:12;18.70;99.90
20977;DHT22;10647;51.016;3.720;2023-04-15T10:22:40;18.40;99.90
20977;DHT22;10647;51.016;3.720;2023-04-15T10:25:08;18.00;99.90
20977;DHT22;10647;51.016;3.720;2023-04-15T10:27:39;17.80;99.90
20977;DHT22;10647;51.016;3.720;2023-04-15T10:30:09;17.80;99.90
20977;DHT22;10647;51.016;3.720;2023-04-15T10:32:37;17.70;99.90
20977;DHT22;10647;51.016;3.720;2023-04-15T10:35:11;17.60;99.90
20977;DHT22;10647;51.016;3.720;2023-04-15T10:37:40;17.90;99.90
20977;DHT22;10647;51.016;3.720;2023-04-15T10:40:25;18.10;99.90
20977;DHT22;10647;51.016;3.720;2023-04-15T10:42:57;18.10;99.90
20977;DHT22;10647;51.016;3.720;2023-04-15T10:45:30;18.10;99.90
20977;DHT22;10647;51.016;3.720;2023-04-15T10:47:59;18.30;99.90
20977;DHT22;10647;51.016;3.720;2023-04-15T10:50:32;18.40;99.90
20977;DHT22;10647;51.016;3.720;2023-04-15T10:53:02;18.60;99.90
20977;DHT22;10647;51.016;3.720;2023-04-15T10:55:33;18.70;99.90
20977;DHT22;10647;51.016;3.720;2023-04-15T10:58:01;18.80;99.90
20977;DHT22;10647;51.016;3.720;2023-04-15T11:00:31;18.80;99.90
20977;DHT22;10647;51.016;3.720;2023-04-15T11:03:08;18.80;99.90
20977;DHT22;10647;51.016;3.720;2023-04-15T11:08:13;18.60;99.90
20977;DHT22;10647;51.016;3.720;2023-04-15T11:13:17;18.70;99.90
20977;DHT22;10647;51.016;3.720;2023-04-15T11:15:50;18.90;99.90
20977;DHT22;10647;51.016;3.720;2023-04-15T11:18:24;19.10;99.90
20977;DHT22;10647;51.016;3.720;2023-04-15T11:21:06;19.00;99.90
20977;DHT22;10647;51.016;3.720;2023-04-15T11:23:38;19.10;99.90
20977;DHT22;10647;51.016;3.720;2023-04-15T11:26:09;18.90;98.90
20977;DHT22;10647;51.016;3.720;2023-04-15T11:28:43;18.90;97.50
20977;DHT22;10647;51.016;3.720;2023-04-15T11:31:15;18.80;96.00
20977;DHT22;10647;51.016;3.720;2023-04-15T11:33:56;18.60;95.90
20977;DHT22;10647;51.016;3.720;2023-04-15T11:36:28;18.80;96.80
20977;DHT22;10647;51.016;3.720;2023-04-15T11:38:58;18.80;96.20
20977;DHT22;10647;51.016;3.720;2023-04-15T11:41:31;18.90;95.70
20977;DHT22;10647;51.016;3.720;2023-04-15T11:43:59;19.10;96.00
20977;DHT22;10647;51.016;3.720;2023-04-15T11:46:30;18.90;94.90
20977;DHT22;10647;51.016;3.720;2023-04-15T11:48:57;19.00;94.70
20977;DHT22;10647;51.016;3.720;2023-04-15T11:51:31;19.10;94.00
20977;DHT22;10647;51.016;3.720;2023-04-15T11:53:57;18.90;91.80
20977;DHT22;10647;51.016;3.720;2023-04-15T11:56:25;18.80;91.00
20977;DHT22;10647;51.016;3.720;2023-04-15T11:58:57;18.70;90.70
20977;DHT22;10647;51.016;3.720;2023-04-15T12:01:32;18.60;88.10
20977;DHT22;10647;51.016;3.720;2023-04-15T12:04:00;18.40;88.00
20977;DHT22;10647;51.016;3.720;2023-04-15T12:06:33;18.30;86.60
20977;DHT22;10647;51.016;3.720;2023-04-15T12:11:49;18.60;88.50
20977;DHT22;10647;51.016;3.720;2023-04-15T12:14:26;18.80;90.20
20977;DHT22;10647;51.016;3.720;2023-04-15T12:16:56;18.80;88.10
20977;DHT22;10647;51.016;3.720;2023-04-15T12:19:37;18.70;86.30
20977;DHT22;10647;51.016;3.720;2023-04-15T12:22:12;18.40;82.40
20977;DHT22;10647;51.016;3.720;2023-04-15T12:24:42;18.50;85.50
20977;DHT22;10647;51.016;3.720;2023-04-15T12:27:12;18.60;85.80
20977;DHT22;10647;51.016;3.720;2023-04-15T12:29:41;18.70;84.60
20977;DHT22;10647;51.016;3.720;2023-04-15T12:32:16;18.90;85.80
20977;DHT22;10647;51.016;3.720;2023-04-15T12:34:50;19.20;86.80
20977;DHT22;10647;51.016;3.720;2023-04-15T12:37:18;19.30;86.50
20977;DHT22;10647;51.016;3.720;2023-04-15T12:39:47;19.50;85.80
20977;DHT22;10647;51.016;3.720;2023-04-15T12:42:16;19.40;84.00
20977;DHT22;10647;51.016;3.720;2023-04-15T12:44:44;19.50;84.00
20977;DHT22;10647;51.016;3.720;2023-04-15T12:47:12;19.60;84.30
20977;DHT22;10647;51.016;3.720;2023-04-15T12:49:39;19.50;83.10
20977;DHT22;10647;51.016;3.720;2023-04-15T12:52:07;19.70;84.20
20977;DHT22;10647;51.016;3.720;2023-04-15T12:54:34;19.80;83.00
20977;DHT22;10647;51.016;3.720;2023-04-15T12:57:02;20.10;83.20
20977;DHT22;10647;51.016;3.720;2023-04-15T12:59:29;20.20;81.30
20977;DHT22;10647;51.016;3.720;2023-04-15T13:01:57;20.70;81.20
20977;DHT22;10647;51.016;3.720;2023-04-15T13:04:26;24.40;76.90
20977;DHT22;10647;51.016;3.720;2023-04-15T13:06:55;27.90;70.20
20977;DHT22;10647;51.016;3.720;2023-04-15T13:09:22;29.70;62.10
20977;DHT22;10647;51.016;3.720;2023-04-15T13:11:50;31.10;58.40
20977;DHT22;10647;51.016;3.720;2023-04-15T13:14:18;32.20;55.40
20977;DHT22;10647;51.016;3.720;2023-04-15T13:16:45;33.60;52.30
20977;DHT22;10647;51.016;3.720;2023-04-15T13:19:13;33.60;48.60
20977;DHT22;10647;51.016;3.720;2023-04-15T13:21:41;33.90;47.10
20977;DHT22;10647;51.016;3.720;2023-04-15T13:24:08;34.20;44.70
20977;DHT22;10647;51.016;3.720;2023-04-15T13:26:36;34.60;44.10
20977;DHT22;10647;51.016;3.720;2023-04-15T13:29:04;34.80;43.10
20977;DHT22;10647;51.016;3.720;2023-04-15T13:31:32;35.50;42.30
20977;DHT22;10647;51.016;3.720;2023-04-15T13:33:59;36.60;42.10
20977;DHT22;10647;51.016;3.720;2023-04-15T13:36:27;37.40;40.80
20977;DHT22;10647;51.016;3.720;2023-04-15T13:38:54;36.80;40.20
20977;DHT22;10647;51.016;3.720;2023-04-15T13:41:23;36.60;40.40
20977;DHT22;10647;51.016;3.720;2023-04-15T13:43:52;36.60;39.70
20977;DHT22;10647;51.016;3.720;2023-04-15T13:46:20;35.80;40.00
20977;DHT22;10647;51.016;3.720;2023-04-15T13:48:47;36.50;39.50
20977;DHT22;10647;51.016;3.720;2023-04-15T13:51:15;38.00;38.50
20977;DHT22;10647;51.016;3.720;2023-04-15T13:53:43;38.50;38.10
20977;DHT22;10647;51.016;3.720;2023-04-15T13:56:10;36.20;40.10
20977;DHT22;10647;51.016;3.720;2023-04-15T13:58:39;32.90;43.40
20977;DHT22;10647;51.016;3.720;2023-04-15T14:01:06;31.80;46.30
20977;DHT22;10647;51.016;3.720;2023-04-15T14:03:34;33.70;46.20
20977;DHT22;10647;51.016;3.720;2023-04-15T14:06:02;34.50;45.20
20977;DHT22;10647;51.016;3.720;2023-04-15T14:08:29;33.00;47.20
20977;DHT22;10647;51.016;3.720;2023-04-15T14:10:57;33.10;47.40
20977;DHT22;10647;51.016;3.720;2023-04-15T14:13:24;34.10;46.20
20977;DHT22;10647;51.016;3.720;2023-04-15T14:15:52;35.20;44.20
20977;DHT22;10647;51.016;3.720;2023-04-15T14:18:20;33.30;43.90
20977;DHT22;10647;51.016;3.720;2023-04-15T14:20:47;33.40;44.90
20977;DHT22;10647;51.016;3.720;2023-04-15T14:23:15;34.10;44.30
20977;DHT22;10647;51.016;3.720;2023-04-15T14:25:43;34.40;44.60
20977;DHT22;10647;51.016;3.720;2023-04-15T14:28:10;33.70;46.30
20977;DHT22;10647;51.016;3.720;2023-04-15T14:30:38;35.10;45.60
20977;DHT22;10647;51.016;3.720;2023-04-15T14:33:06;34.80;45.40
20977;DHT22;10647;51.016;3.720;2023-04-15T14:35:33;35.00;45.30
20977;DHT22;10647;51.016;3.720;2023-04-15T14:38:01;35.30;45.20
20977;DHT22;10647;51.016;3.720;2023-04-15T14:40:28;35.10;44.00
20977;DHT22;10647;51.016;3.720;2023-04-15T14:42:56;35.10;43.80
20977;DHT22;10647;51.016;3.720;2023-04-15T14:45:23;35.40;43.60
20977;DHT22;10647;51.016;3.720;2023-04-15T14:47:51;35.00;44.50
20977;DHT22;10647;51.016;3.720;2023-04-15T14:50:19;35.50;42.80
20977;DHT22;10647;51.016;3.720;2023-04-15T14:52:46;35.60;42.90
20977;DHT22;10647;51.016;3.720;2023-04-15T14:55:14;35.50;43.00
20977;DHT22;10647;51.016;3.720;2023-04-15T14:57:42;35.00;43.00
20977;DHT22;10647;51.016;3.720;2023-04-15T15:00:10;34.10;43.80
20977;DHT22;10647;51.016;3.720;2023-04-15T15:02:38;33.70;44.20
20977;DHT22;10647;51.016;3.720;2023-04-15T15:05:06;33.60;44.20
20977;DHT22;10647;51.016;3.720;2023-04-15T15:07:33;33.00;44.90
20977;DHT22;10647;51.016;3.720;2023-04-15T15:10:02;32.70;45.20
20977;DHT22;10647;51.016;3.720;2023-04-15T15:12:30;31.80;46.60
20977;DHT22;10647;51.016;3.720;2023-04-15T15:14:57;31.70;46.70
20977;DHT22;10647;51.016;3.720;2023-04-15T15:17:25;30.50;47.10
20977;DHT22;10647;51.016;3.720;2023-04-15T15:19:53;29.70;47.80
20977;DHT22;10647;51.016;3.720;2023-04-15T15:22:21;28.80;49.00
20977;DHT22;10647;51.016;3.720;2023-04-15T15:24:48;27.70;48.80
20977;DHT22;10647;51.016;3.720;2023-04-15T15:27:16;26.90;47.90
20977;DHT22;10647;51.016;3.720;2023-04-15T15:29:43;26.30;46.20
20977;DHT22;10647;51.016;3.720;2023-04-15T15:32:11;25.70;46.20
20977;DHT22;10647;51.016;3.720;2023-04-15T15:34:38;24.80;47.60
20977;DHT22;10647;51.016;3.720;2023-04-15T15:37:06;24.30;48.90
20977;DHT22;10647;51.016;3.720;2023-04-15T15:39:34;24.10;50.50
20977;DHT22;10647;51.016;3.720;2023-04-15T15:42:02;23.90;50.60
20977;DHT22;10647;51.016;3.720;2023-04-15T15:44:30;23.30;52.80
20977;DHT22;10647;51.016;3.720;2023-04-15T15:46:59;23.20;53.40
20977;DHT22;10647;51.016;3.720;2023-04-15T15:49:27;23.10;54.40
20977;DHT22;10647;51.016;3.720;2023-04-15T15:51:55;23.20;54.80
20977;DHT22;10647;51.016;3.720;2023-04-15T15:54:23;22.90;54.10
20977;DHT22;10647;51.016;3.720;2023-04-15T15:56:51;22.10;55.50